Racecast

Avery Saunders

Cheyenne Central (CO) · 12 · Compare head to head

Athlete rating 91.1 2022 XC season
Best race 92.9 XC
Races 57
Seasons 6 2018 — 2023

RankedNation #107824·CO #2379·Team #43 ?

Speed rating — all races

Cross Country

XC speed rating

2022 XC 88.4

Cheyenne Central (CO) · Grade 12

Date Meet Event Result Place Rating Difficulty PR/SR Flags
2022-09-30 Thornton High School 5000m 27:04.2 50th · 6th on team 92.9 +0.009 ★PR ★CR ★R SR CSR RSR
2022-08-27 Margaret W. Carpenter Recreation Center 5000m 30:10.4 95th · 13th on team 84.0 +0.014 PR ★CR R SR CSR RSR

2018 XC 63.6

McCormick (TX) · Grade 8

Date Meet Event Result Place Rating Difficulty PR/SR Flags
2018-10-05 Prairie View Golf Course 1770m 13:51.8 42nd · 14th on team 63.6 ★PR ★CR R SR CSR RSR

Track & Field

TF speed rating

2023 TF

Cheyenne Central (CO) · Grade 12

Date Meet Event Result Place Rating Difficulty PR/SR Flags
2023-04-01 Altitude Running Invitational 300mh 55.05 25th · 1st on team -0.009 SR
2023-03-24 Runners Roost of Fort Collins Invitational 100mh 19.67 26th · 2nd on team -0.011 SR
2023-03-04 WHSAA Indoor State Championships 55mh 10.16 24th · 3rd on team -0.023 SR
2023-02-18 Let's Get REAL Invitational Championship 60mh 11.8 23rd · 2nd on team -0.009 ★PR SR
2023-02-03 Basin Nation Meet 200m 30.86 72nd · 8th on team -0.015 SR
2023-02-03 Basin Nation Meet 55mh 10.58 44th · 7th on team -0.015 SR

2022 TF

Cheyenne Central (CO) · Grade 11

Date Meet Event Result Place Rating Difficulty PR/SR Flags
2022-05-14 Wyoming 4A East Regionals 300mh 55.79 24th · 6th on team +0.012
2022-05-14 Wyoming 4A East Regionals 200m 31.97 36th · 4th on team +0.012
2022-05-06 2022 Wiseman Invite 300mh 54.08 6th · 2nd on team -0.012
2022-05-06 2022 Wiseman Invite 100mh 18.93 12th · 3rd on team -0.012
2022-04-22 Kendra Roeder Invite 100mh 18.69 10th · 1st on team +0.006 ★PR SR
2022-04-22 Pine Bluffs Invite 100mh 18.69 10th · 1st on team +0.006
2022-04-22 Kendra Roeder Invite 100mh 19.69 13th · 2nd on team +0.006
2022-04-22 Pine Bluffs Invite 100mh 19.69 13th · 2nd on team +0.006
2022-04-08 Okie Blanchard Invite 100mh 19.27 2nd · 2nd on team +0.006 SR
2022-04-08 Okie Blanchard Invite 300mh 55.58 2nd · 1st on team +0.006
2022-04-08 Okie Blanchard Invite 200m 30.51 8th · 3rd on team +0.006 SR
2022-03-19 Murray Kula Invitational 300mh 53.6 15th · 2nd on team -0.008 SR
2022-02-25 Last Chance Qualifier 55m 8.43 25th · 4th on team -0.005 ★PR SR
2022-02-25 Last Chance Qualifier 55mh 10.21 6th · 3rd on team -0.005
2022-02-12 Mustang Invitational 55mh 9.97 7th · 4th on team -0.003 ★PR SR
2022-02-04 Basin Nation 55mh 10.58 27th · 11th on team -0.012
2022-02-04 Basin Nation 200m 30.52 43rd · 4th on team -0.012 SR
2022-01-29 307 Invitational 55mh 10.5 8th · 4th on team -0.005 PR SR
2022-01-29 307 Invitational 400m 1:11.45 13th · 2nd on team -0.005 ★PR SR
2022-01-15 Natrona Invitational 55m 8.64 68th · 5th on team -0.003 SR
2022-01-15 Natrona Invitational 55mh 11.42 27th · 5th on team -0.003 SR

2021 TF

Cheyenne Central (CO) · Grade 10

Date Meet Event Result Place Rating Difficulty PR/SR Flags
2021-05-07 2021 Wiseman Invite 300mh 52.14 9th · 3rd on team -0.012 ★PR SR
2021-04-30 Kelly Walsh Invite 300mh 55.35 12th · 3rd on team +0.006
2021-04-30 Kelly Walsh Invite 100m 14.27 43rd · 3rd on team +0.006 ★PR SR
2021-04-28 Cheyenne Traingular 300mh 54.54 3rd · 3rd on team +0.006 PR SR
2021-04-23 Twilight Invitational 2021 200m 30.28 24th · 2nd on team -0.017 ★PR SR
2021-04-09 Okie Blanchard Invite 100mh 19.1 4th · 3rd on team +0.006 SR
2021-04-09 Okie Blanchard Invite 100m 15.38 25th · 7th on team +0.006 PR SR
2021-02-19 WHSAA Indoor Meet #3 55mh 10.89 14th · 14th on team -0.023
2021-02-19 WHSAA Indoor Meet #3 55mh 10.64 7th · 7th on team -0.023 PR SR
2021-02-19 WHSAA Indoor Meet #3 55m 8.57 24th · 12th on team -0.023 PR SR
2021-02-05 WHSAA Indoor Meet 55mh 10.74 7th · 5th on team -0.023 PR SR
2021-02-05 WHSAA Indoor Meet 55mh 10.91 10th · 7th on team -0.023
2021-02-05 WHSAA Indoor Meet 55m 8.73 39th · 10th on team -0.023 PR SR
2021-01-15 WHSAA Indoor Meet #1 55m 9.01 44th · 9th on team -0.023 SR
2021-01-15 WHSAA Indoor Meet #1 55mh 10.95 11th · 5th on team -0.023 SR
2021-01-15 WHSAA Indoor Meet #1 55mh 11.12 12th · 6th on team -0.023

2020 TF

Cheyenne Central (CO) · Grade 9

Date Meet Event Result Place Rating Difficulty PR/SR Flags
2020-02-28 Wyoming Last Chance 55m 8.76 65th · 11th on team -0.005 PR SR
2020-02-28 Wyoming Last Chance 55mh 10.8 18th · 7th on team -0.005 PR SR
2020-02-21 Basin Nation Indoor Meet 55mh 10.92 37th · 7th on team -0.023
2020-02-21 Basin Nation Indoor Meet 55m 8.8 133rd · 9th on team -0.023 PR SR
2020-02-08 Natrona Indoor Invite #2 55mh 11.22 39th · 8th on team -0.003
2020-01-24 Wyoming HS Open 55mh 10.92 9th · 5th on team -0.005
2020-01-24 Wyoming HS Open 55m 8.86 31st · 11th on team -0.005
2020-01-17 Natrona Indoor Invitational #1 55mh 10.85 26th · 2nd on team -0.003 PR SR
2020-01-17 Natrona Indoor Invitational #1 55m 8.85 119th · 10th on team -0.003 PR SR

2019 TF

McCormick (TX) · Grade 8

Date Meet Event Result Place Rating Difficulty PR/SR Flags
2019-05-06 East Classic 100mh 19.1 20th · 2nd on team -0.002 PR SR
2019-04-24 Val Cegelski Outdoor Track Meet 100mh 19.14 4th · 2nd on team +0.010 PR SR